NCAR-RAP Real-Time Weather Data

Output produced by METARs form (12 August 2020  18:21 UTC)
found at http://weather.rap.ucar.edu/surface/
 
KBNA 121817Z 03014KT 10SM -TSRA FEW015 BKN029CB BKN065TCU OVC200 28/22 A3003 RMK AO2 LTG DSNT W-N RAB1756 OCNL LTGICCG TS N MOV NE TCU OHD AND ALQDS VIS LWR N P0001 T02780217
KBNA 121753Z 33011G22KT 10SM TS BKN035TCU BKN065 OVC200 27/21 A3004 RMK AO2 LTG DSNT W-N TSB1655E10B50 SLP164 TCU OHD AND ALQDS CB DSNT NW T02720211 10322 20256 56006
KBNA 121716Z 10005KT 10SM VCTS SCT035TCU BKN045 BKN070 OVC200 32/22 A3003 RMK AO2 LTG DSNT N TSB1655E10 TCU OHD AND ALQDS CB DSNT NW T03170222
KBNA 121701Z 10005KT 10SM TS SCT035TCU BKN045 BKN070 OVC200 32/22 A3004 RMK AO2 LTG DSNT NE AND NW TSB1655 TCU OHD AND ALQDS CB DSNT NW T03170222
KBNA 121653Z 10006KT 10SM FEW031 SCT045TCU BKN070 BKN200 BKN250 32/22 A3004 RMK AO2 LTG DSNT NE AND NW SLP164 TCU OHD AND ALQDS T03170222
KBNA 121639Z COR 11004KT 10SM VCTS FEW031 SCT045TCU BKN070 BKN200 BKN250 31/23 A3005 RMK AO2 LTG DSNT NW TCU OHD AND ALQDS T03110228
KBNA 121553Z 14005KT 10SM SCT040TCU SCT070 BKN250 31/23 A3005 RMK AO2 LTG DSNT E SLP167 TCU OHD AND ALQDS T03110228
KBNA 121453Z 00000KT 10SM FEW039 SCT140 BKN200 BKN250 31/23 A3006 RMK AO2 SLP169 T03060233 51007
KBNA 121353Z VRB04KT 10SM SCT040 SCT170 BKN250 28/23 A3006 RMK AO2 SLP170 T02780233
KBNA 121253Z 06003KT 9SM FEW040 FEW150 SCT250 27/23 A3005 RMK AO2 SLP167 T02720228
KBNA 121153Z 03004KT 8SM FEW038 FEW140 SCT200 26/23 A3004 RMK AO2 SLP163 T02560228 10261 20239 51007 $
KBNA 121053Z 00000KT 10SM FEW150 SCT250 24/22 A3003 RMK AO2 SLP161 T02440222 $
KBNA 120953Z 33003KT 10SM FEW150 25/22 A3002 RMK AO2 SLP159 T02500222 $
KBNA 120853Z 00000KT 10SM FEW150 25/22 A3001 RMK AO2 SLP156 T02500222 55003 $
KBNA 120753Z 33004KT 10SM CLR 26/22 A3001 RMK AO2 SLP153 T02560222 $
KBNA 120653Z 00000KT 10SM CLR 25/22 A3001 RMK AO2 SLP155 T02500222 $
KBNA 120553Z 00000KT 10SM FEW040 SCT250 26/22 A3002 RMK AO2 SLP159 T02560222 10300 20256 403330222 50003 $
KBNA 120453Z 31005KT 10SM FEW040 SCT250 26/22 A3003 RMK AO2 SLP161 T02610222 $
KBNA 120353Z 31003KT 10SM FEW250 27/22 A3002 RMK AO2 SLP158 T02720222 $
KBNA 120253Z 00000KT 10SM CLR 28/22 A3001 RMK AO2 SLP155 T02780222 53012 $
KBNA 120153Z 28003KT 10SM FEW035 BKN250 27/22 A2999 RMK AO2 SLP149 T02720222 $
KBNA 120053Z VRB03KT 10SM FEW035 FEW150 BKN250 29/22 A2998 RMK AO2 SLP145 T02890222 $
KBNA 112353Z 31007KT 10SM FEW035 FEW150 BKN250 30/22 A2998 RMK AO2 SLP144 T03000217 10333 20300 56005 $
KBNA 112253Z 34006KT 10SM FEW035 FEW150 BKN250 31/22 A2998 RMK AO2 SLP145 T03060217 $
KBNA 112153Z 28007KT 10SM FEW035 SCT150 BKN250 32/22 A2998 RMK AO2 SLP146 T03170222 $
KBNA 112053Z 26004KT 10SM SCT050 SCT100 BKN250 32/22 A2999 RMK AO2 SLP149 T03170217 56017 $
KBNA 111953Z VRB06KT 10SM FEW050 BKN250 32/21 A3001 RMK AO2 SLP153 T03220211 $
KBNA 111853Z 23007KT 10SM FEW048 SCT080 BKN200 BKN250 32/21 A3003 RMK AO2 SLP159 TCU DSNT ALQDS T03170206 $
KBNA 111753Z 20006KT 10SM FEW050 SCT065 BKN200 BKN250 31/20 A3004 RMK AO2 SLP165 TCU DSNT SE T03060200 10322 20233 58006
KBNA 111653Z 24004KT 10SM FEW048 SCT060 BKN200 BKN250 31/19 A3005 RMK AO2 SLP169 TCU DSNT S T03060194
KBNA 111553Z 00000KT 10SM FEW045 FEW060 SCT200 SCT250 31/19 A3006 RMK AO2 SLP170 T03110194
KBNA 111453Z 17004KT 10SM FEW050 SCT060 SCT200 BKN250 29/19 A3006 RMK AO2 SLP172 T02940189 51015
KBNA 111353Z 16004KT 10SM FEW045 FEW170 SCT250 27/19 A3005 RMK AO2 SLP168 T02670189
KBNA 111253Z 00000KT 10SM FEW035 FEW170 SCT250 26/19 A3004 RMK AO2 SLP163 T02560189
KBNA 111153Z 00000KT 10SM FEW050 SCT160 BKN250 23/19 A3002 RMK AO2 SLP157 T02330189 10272 20222 55007
KBNA 111053Z 18006KT 10SM BKN150 BKN250 23/19 A2996 RMK AO2 SLP139 T02280189
KBNA 110953Z 19005KT 10SM SCT070 BKN150 23/19 A2998 RMK AO2 SLP144 T02280194
KBNA 110853Z 31005KT 10SM FEW045 SCT085 BKN130 23/19 A3004 RMK AO2 SLP164 T02330194 50006
KBNA 110753Z 32009KT 10SM FEW040 SCT060 BKN120 24/19 A3005 RMK AO2 SLP167 T02390194
KBNA 110653Z 33008KT 10SM BKN060 26/19 A3004 RMK AO2 LTG DSNT SE SLP162 T02560189
KBNA 110553Z 35006KT 10SM FEW027 SCT035 BKN047 27/21 A3002 RMK AO2 LTG DSNT E SLP158 T02670211 10300 20256 403610233 53001
KBNA 110453Z 18006KT 10SM SCT048 SCT060 BKN120 26/21 A3000 RMK AO2 LTG DSNT E AND NW SLP150 T02610211
KBNA 110353Z 16006KT 10SM SCT048 SCT250 26/21 A3002 RMK AO2 SLP156 T02610206
KBNA 110253Z 16004KT 10SM BKN048 27/21 A3002 RMK AO2 SLP157 T02720211 53016
KBNA 110153Z 17003KT 10SM CLR 27/21 A3000 RMK AO2 SLP153 T02720211
KBNA 110053Z 14008KT 10SM FEW047 29/21 A2998 RMK AO2 SLP143 T02890211
KBNA 102353Z 15004KT 10SM FEW050 SCT250 30/21 A2997 RMK AO2 SLP142 CB DSNT S T03000211 10361 20300 57003
KBNA 102253Z 12013KT 10SM FEW050 FEW070 SCT250 31/22 A2997 RMK AO2 LTG DSNT SE SLP142 TCU DSNT SE-S T03060217
KBNA 102242Z 11014G17KT 10SM FEW050 FEW070 SCT250 32/22 A2997 RMK AO2 LTG DSNT E AND SE TCU DSNT SE-S T03170222
KBNA 102221Z 26007KT 10SM VCTS FEW050 FEW070 SCT250 34/20 A2999 RMK AO2 LTG DSNT E-S TCU DSNT SE-S T03440200
KBNA 102206Z 29005KT 10SM FEW050 SCT070 SCT250 35/21 A2998 RMK AO2 LTG DSNT E AND SE CB DSNT E-SE TCU DSNT ALQDS T03500211
KBNA 102153Z 27006KT 10SM VCTS FEW050 SCT070 SCT250 35/21 A2998 RMK AO2 LTG DSNT NE-SE SLP144 CB DSNT E-SE TCU DSNT ALQDS T03500211
KBNA 102150Z 27009KT 10SM VCTS FEW050 SCT070 SCT250 35/21 A2998 RMK AO2 LTG DSNT NE-SE CB DSNT E-SE TCU DSNT ALQDS
KBNA 102053Z 26006KT 10SM SCT050TCU SCT070 34/22 A2999 RMK AO2 LTG DSNT NE SLP146 TCU OHD-ALQDS T03440222 58015
KBNA 101953Z 29009KT 10SM SCT048TCU BKN060 36/22 A3001 RMK AO2 LTG DSNT NE-SE SLP152 TCU OHD-ALQDS T03560217
KBNA 101907Z VRB04KT 10SM FEW048 34/22 A3002 RMK AO2 LTG DSNT NE T03440217
KBNA 101853Z 29008KT 10SM VCTS SCT046TCU SCT060 BKN075 BKN250 35/22 A3003 RMK AO2 LTG DSNT NE SLP161 TCU OHD AND ALQDS T03500222
KBNA 101851Z 29008KT 10SM VCTS SCT046TCU SCT060 BKN075 BKN250 35/22 A3003 RMK AO2 LTG DSNT NE TCU OHD AND ALQDS